sensor_id;sensor_type;location;lat;lon;timestamp;P1;durP1;ratioP1;P2;durP2;ratioP2
13220;SDS011;6675;48.128;11.478;2024-02-26T00:00:32;13.55;;;6.18;;
13220;SDS011;6675;48.128;11.478;2024-02-26T00:02:59;12.63;;;5.75;;
13220;SDS011;6675;48.128;11.478;2024-02-26T00:05:26;14.40;;;6.10;;
13220;SDS011;6675;48.128;11.478;2024-02-26T00:07:51;11.85;;;5.88;;
13220;SDS011;6675;48.128;11.478;2024-02-26T00:10:17;13.32;;;6.22;;
13220;SDS011;6675;48.128;11.478;2024-02-26T00:12:43;11.40;;;5.55;;
13220;SDS011;6675;48.128;11.478;2024-02-26T00:15:10;11.70;;;5.47;;
13220;SDS011;6675;48.128;11.478;2024-02-26T00:17:36;11.57;;;5.35;;
13220;SDS011;6675;48.128;11.478;2024-02-26T00:20:02;13.68;;;5.93;;
13220;SDS011;6675;48.128;11.478;2024-02-26T00:22:29;14.85;;;6.38;;
13220;SDS011;6675;48.128;11.478;2024-02-26T00:25:04;12.98;;;5.43;;
13220;SDS011;6675;48.128;11.478;2024-02-26T00:27:30;14.85;;;5.85;;
13220;SDS011;6675;48.128;11.478;2024-02-26T00:29:56;14.52;;;6.38;;
13220;SDS011;6675;48.128;11.478;2024-02-26T00:32:21;12.73;;;5.95;;
13220;SDS011;6675;48.128;11.478;2024-02-26T00:34:47;16.83;;;6.57;;
13220;SDS011;6675;48.128;11.478;2024-02-26T00:37:13;14.43;;;6.35;;
13220;SDS011;6675;48.128;11.478;2024-02-26T00:39:58;16.35;;;5.88;;
13220;SDS011;6675;48.128;11.478;2024-02-26T00:42:23;13.88;;;6.57;;
13220;SDS011;6675;48.128;11.478;2024-02-26T00:44:55;14.45;;;5.95;;
13220;SDS011;6675;48.128;11.478;2024-02-26T00:47:21;16.13;;;6.38;;
13220;SDS011;6675;48.128;11.478;2024-02-26T00:49:46;14.60;;;6.43;;
13220;SDS011;6675;48.128;11.478;2024-02-26T00:52:12;15.13;;;6.15;;
13220;SDS011;6675;48.128;11.478;2024-02-26T00:54:45;12.60;;;5.93;;
13220;SDS011;6675;48.128;11.478;2024-02-26T00:57:11;13.50;;;6.50;;
13220;SDS011;6675;48.128;11.478;2024-02-26T00:59:37;12.95;;;6.40;;
13220;SDS011;6675;48.128;11.478;2024-02-26T01:02:02;13.45;;;6.35;;
13220;SDS011;6675;48.128;11.478;2024-02-26T01:04:30;15.15;;;6.50;;
13220;SDS011;6675;48.128;11.478;2024-02-26T01:06:56;13.23;;;6.38;;
13220;SDS011;6675;48.128;11.478;2024-02-26T01:09:21;14.40;;;6.10;;
13220;SDS011;6675;48.128;11.478;2024-02-26T01:11:47;12.25;;;6.50;;
13220;SDS011;6675;48.128;11.478;2024-02-26T01:14:12;11.98;;;5.63;;
13220;SDS011;6675;48.128;11.478;2024-02-26T01:16:48;13.77;;;6.05;;
13220;SDS011;6675;48.128;11.478;2024-02-26T01:19:14;14.02;;;5.95;;
13220;SDS011;6675;48.128;11.478;2024-02-26T01:21:40;16.45;;;6.43;;
13220;SDS011;6675;48.128;11.478;2024-02-26T01:24:06;14.52;;;6.53;;
13220;SDS011;6675;48.128;11.478;2024-02-26T01:26:32;14.30;;;6.10;;
13220;SDS011;6675;48.128;11.478;2024-02-26T01:28:57;14.85;;;6.35;;
13220;SDS011;6675;48.128;11.478;2024-02-26T01:31:23;12.73;;;6.30;;
13220;SDS011;6675;48.128;11.478;2024-02-26T01:33:55;15.77;;;6.63;;
13220;SDS011;6675;48.128;11.478;2024-02-26T01:36:20;14.77;;;6.30;;
13220;SDS011;6675;48.128;11.478;2024-02-26T01:38:46;12.98;;;6.20;;
13220;SDS011;6675;48.128;11.478;2024-02-26T01:41:13;11.32;;;5.55;;
13220;SDS011;6675;48.128;11.478;2024-02-26T01:43:39;12.07;;;5.97;;
13220;SDS011;6675;48.128;11.478;2024-02-26T01:46:05;9.55;;;5.65;;
13220;SDS011;6675;48.128;11.478;2024-02-26T01:48:32;14.65;;;6.45;;
13220;SDS011;6675;48.128;11.478;2024-02-26T01:50:58;13.20;;;6.22;;
13220;SDS011;6675;48.128;11.478;2024-02-26T01:53:23;14.63;;;6.20;;
13220;SDS011;6675;48.128;11.478;2024-02-26T01:55:49;15.57;;;6.63;;
13220;SDS011;6675;48.128;11.478;2024-02-26T01:58:15;15.40;;;6.60;;
13220;SDS011;6675;48.128;11.478;2024-02-26T02:00:41;14.90;;;5.82;;
13220;SDS011;6675;48.128;11.478;2024-02-26T02:03:07;14.05;;;6.47;;
13220;SDS011;6675;48.128;11.478;2024-02-26T02:05:33;16.20;;;6.70;;
13220;SDS011;6675;48.128;11.478;2024-02-26T02:08:06;14.05;;;6.07;;
13220;SDS011;6675;48.128;11.478;2024-02-26T02:10:33;12.40;;;6.25;;
13220;SDS011;6675;48.128;11.478;2024-02-26T02:12:59;14.15;;;5.93;;
13220;SDS011;6675;48.128;11.478;2024-02-26T02:15:24;14.98;;;6.93;;
13220;SDS011;6675;48.128;11.478;2024-02-26T02:17:50;12.13;;;6.03;;
13220;SDS011;6675;48.128;11.478;2024-02-26T02:20:18;15.23;;;6.38;;
13220;SDS011;6675;48.128;11.478;2024-02-26T02:22:44;14.85;;;6.57;;
13220;SDS011;6675;48.128;11.478;2024-02-26T02:25:11;12.07;;;5.30;;
13220;SDS011;6675;48.128;11.478;2024-02-26T02:27:44;13.57;;;6.35;;
13220;SDS011;6675;48.128;11.478;2024-02-26T02:30:09;13.30;;;6.05;;
13220;SDS011;6675;48.128;11.478;2024-02-26T02:32:37;13.50;;;5.95;;
13220;SDS011;6675;48.128;11.478;2024-02-26T02:35:05;15.25;;;6.13;;
13220;SDS011;6675;48.128;11.478;2024-02-26T02:37:31;14.85;;;6.50;;
13220;SDS011;6675;48.128;11.478;2024-02-26T02:39:56;16.75;;;6.38;;
13220;SDS011;6675;48.128;11.478;2024-02-26T02:42:23;11.35;;;5.68;;
13220;SDS011;6675;48.128;11.478;2024-02-26T02:44:49;15.85;;;6.63;;
13220;SDS011;6675;48.128;11.478;2024-02-26T02:47:14;15.43;;;6.60;;
13220;SDS011;6675;48.128;11.478;2024-02-26T02:49:40;15.80;;;7.10;;
13220;SDS011;6675;48.128;11.478;2024-02-26T02:52:06;13.27;;;6.55;;
13220;SDS011;6675;48.128;11.478;2024-02-26T02:54:32;15.90;;;7.47;;
13220;SDS011;6675;48.128;11.478;2024-02-26T02:56:57;15.48;;;7.20;;
13220;SDS011;6675;48.128;11.478;2024-02-26T02:59:23;15.80;;;6.93;;
13220;SDS011;6675;48.128;11.478;2024-02-26T03:01:49;14.85;;;6.55;;
13220;SDS011;6675;48.128;11.478;2024-02-26T03:04:14;14.27;;;6.97;;
13220;SDS011;6675;48.128;11.478;2024-02-26T03:06:40;16.00;;;6.35;;
13220;SDS011;6675;48.128;11.478;2024-02-26T03:09:05;13.48;;;6.68;;
13220;SDS011;6675;48.128;11.478;2024-02-26T03:11:34;15.20;;;5.90;;
13220;SDS011;6675;48.128;11.478;2024-02-26T03:14:05;12.32;;;5.78;;
13220;SDS011;6675;48.128;11.478;2024-02-26T03:16:31;13.43;;;5.97;;
13220;SDS011;6675;48.128;11.478;2024-02-26T03:18:57;16.33;;;6.50;;
13220;SDS011;6675;48.128;11.478;2024-02-26T03:21:23;15.38;;;6.20;;
13220;SDS011;6675;48.128;11.478;2024-02-26T03:23:49;16.20;;;6.68;;
13220;SDS011;6675;48.128;11.478;2024-02-26T03:26:15;14.80;;;6.45;;
13220;SDS011;6675;48.128;11.478;2024-02-26T03:28:41;13.35;;;6.43;;
13220;SDS011;6675;48.128;11.478;2024-02-26T03:31:06;17.85;;;6.68;;
13220;SDS011;6675;48.128;11.478;2024-02-26T03:33:32;13.95;;;6.43;;
13220;SDS011;6675;48.128;11.478;2024-02-26T03:35:58;16.13;;;7.20;;
13220;SDS011;6675;48.128;11.478;2024-02-26T03:38:23;13.73;;;6.47;;
13220;SDS011;6675;48.128;11.478;2024-02-26T03:40:49;16.42;;;6.30;;
13220;SDS011;6675;48.128;11.478;2024-02-26T03:43:14;17.80;;;6.70;;
13220;SDS011;6675;48.128;11.478;2024-02-26T03:45:40;14.20;;;6.25;;
13220;SDS011;6675;48.128;11.478;2024-02-26T03:48:05;16.27;;;7.15;;
13220;SDS011;6675;48.128;11.478;2024-02-26T03:50:31;15.60;;;6.68;;
13220;SDS011;6675;48.128;11.478;2024-02-26T03:52:57;12.80;;;6.15;;
13220;SDS011;6675;48.128;11.478;2024-02-26T03:55:23;14.02;;;6.55;;
13220;SDS011;6675;48.128;11.478;2024-02-26T03:57:50;12.88;;;6.55;;
13220;SDS011;6675;48.128;11.478;2024-02-26T04:00:16;13.30;;;6.20;;
13220;SDS011;6675;48.128;11.478;2024-02-26T04:02:42;16.45;;;6.80;;
13220;SDS011;6675;48.128;11.478;2024-02-26T04:05:11;12.95;;;5.80;;
13220;SDS011;6675;48.128;11.478;2024-02-26T04:07:39;15.00;;;6.50;;
13220;SDS011;6675;48.128;11.478;2024-02-26T04:10:08;12.88;;;6.28;;
13220;SDS011;6675;48.128;11.478;2024-02-26T04:12:38;15.00;;;7.22;;
13220;SDS011;6675;48.128;11.478;2024-02-26T04:15:05;13.77;;;6.63;;
13220;SDS011;6675;48.128;11.478;2024-02-26T04:17:32;14.18;;;6.22;;
13220;SDS011;6675;48.128;11.478;2024-02-26T04:19:57;15.05;;;6.72;;
13220;SDS011;6675;48.128;11.478;2024-02-26T04:22:23;15.90;;;6.38;;
13220;SDS011;6675;48.128;11.478;2024-02-26T04:24:54;14.63;;;6.00;;
13220;SDS011;6675;48.128;11.478;2024-02-26T04:27:20;13.32;;;6.00;;
13220;SDS011;6675;48.128;11.478;2024-02-26T04:29:45;13.93;;;6.68;;
13220;SDS011;6675;48.128;11.478;2024-02-26T04:32:11;13.65;;;6.18;;
13220;SDS011;6675;48.128;11.478;2024-02-26T04:34:37;14.88;;;6.38;;
13220;SDS011;6675;48.128;11.478;2024-02-26T04:37:02;12.73;;;6.53;;
13220;SDS011;6675;48.128;11.478;2024-02-26T04:39:28;15.90;;;6.50;;
13220;SDS011;6675;48.128;11.478;2024-02-26T04:41:53;16.60;;;7.10;;
13220;SDS011;6675;48.128;11.478;2024-02-26T04:44:19;12.60;;;6.25;;
13220;SDS011;6675;48.128;11.478;2024-02-26T04:46:45;14.65;;;6.30;;
13220;SDS011;6675;48.128;11.478;2024-02-26T04:49:10;14.23;;;6.55;;
13220;SDS011;6675;48.128;11.478;2024-02-26T04:51:36;18.63;;;7.50;;
13220;SDS011;6675;48.128;11.478;2024-02-26T04:54:02;13.43;;;6.35;;
13220;SDS011;6675;48.128;11.478;2024-02-26T04:56:28;13.30;;;6.00;;
13220;SDS011;6675;48.128;11.478;2024-02-26T04:58:57;15.30;;;6.78;;
13220;SDS011;6675;48.128;11.478;2024-02-26T05:01:22;14.63;;;6.35;;
13220;SDS011;6675;48.128;11.478;2024-02-26T05:03:48;13.98;;;6.97;;
13220;SDS011;6675;48.128;11.478;2024-02-26T05:06:14;15.68;;;6.88;;
13220;SDS011;6675;48.128;11.478;2024-02-26T05:08:40;14.52;;;6.72;;
13220;SDS011;6675;48.128;11.478;2024-02-26T05:11:05;11.90;;;6.10;;
13220;SDS011;6675;48.128;11.478;2024-02-26T05:13:31;14.07;;;6.47;;
13220;SDS011;6675;48.128;11.478;2024-02-26T05:15:57;14.98;;;6.55;;
13220;SDS011;6675;48.128;11.478;2024-02-26T05:18:26;13.57;;;6.25;;
13220;SDS011;6675;48.128;11.478;2024-02-26T05:20:52;15.15;;;6.47;;
13220;SDS011;6675;48.128;11.478;2024-02-26T05:23:17;17.10;;;7.63;;
13220;SDS011;6675;48.128;11.478;2024-02-26T05:25:43;15.60;;;7.40;;
13220;SDS011;6675;48.128;11.478;2024-02-26T05:28:12;15.30;;;7.45;;
13220;SDS011;6675;48.128;11.478;2024-02-26T05:30:37;17.00;;;7.57;;
13220;SDS011;6675;48.128;11.478;2024-02-26T05:33:05;16.10;;;7.28;;
13220;SDS011;6675;48.128;11.478;2024-02-26T05:35:39;13.35;;;6.95;;
13220;SDS011;6675;48.128;11.478;2024-02-26T05:38:05;16.70;;;7.40;;
13220;SDS011;6675;48.128;11.478;2024-02-26T05:40:31;14.43;;;7.40;;
13220;SDS011;6675;48.128;11.478;2024-02-26T05:42:57;16.23;;;7.07;;
13220;SDS011;6675;48.128;11.478;2024-02-26T05:45:25;15.75;;;6.85;;
13220;SDS011;6675;48.128;11.478;2024-02-26T05:47:53;15.45;;;7.72;;
13220;SDS011;6675;48.128;11.478;2024-02-26T05:50:19;14.88;;;7.20;;
13220;SDS011;6675;48.128;11.478;2024-02-26T05:52:44;15.85;;;6.72;;
13220;SDS011;6675;48.128;11.478;2024-02-26T05:55:10;18.50;;;8.55;;
13220;SDS011;6675;48.128;11.478;2024-02-26T05:57:35;22.77;;;10.40;;
13220;SDS011;6675;48.128;11.478;2024-02-26T06:00:01;16.58;;;8.05;;
13220;SDS011;6675;48.128;11.478;2024-02-26T06:02:30;16.38;;;7.45;;
13220;SDS011;6675;48.128;11.478;2024-02-26T06:04:56;14.73;;;7.00;;
13220;SDS011;6675;48.128;11.478;2024-02-26T06:07:22;17.83;;;8.70;;
13220;SDS011;6675;48.128;11.478;2024-02-26T06:09:48;19.65;;;8.43;;
13220;SDS011;6675;48.128;11.478;2024-02-26T06:12:14;20.65;;;8.93;;
13220;SDS011;6675;48.128;11.478;2024-02-26T06:14:39;22.60;;;8.85;;
13220;SDS011;6675;48.128;11.478;2024-02-26T06:17:15;21.40;;;9.20;;
13220;SDS011;6675;48.128;11.478;2024-02-26T06:19:52;20.33;;;9.25;;
13220;SDS011;6675;48.128;11.478;2024-02-26T06:22:18;21.42;;;9.15;;
13220;SDS011;6675;48.128;11.478;2024-02-26T06:24:44;16.30;;;8.23;;
13220;SDS011;6675;48.128;11.478;2024-02-26T06:27:09;19.00;;;8.13;;
13220;SDS011;6675;48.128;11.478;2024-02-26T06:29:35;18.38;;;7.90;;
13220;SDS011;6675;48.128;11.478;2024-02-26T06:32:06;19.55;;;8.77;;
13220;SDS011;6675;48.128;11.478;2024-02-26T06:37:17;23.33;;;10.75;;
13220;SDS011;6675;48.128;11.478;2024-02-26T06:39:50;24.17;;;10.57;;
13220;SDS011;6675;48.128;11.478;2024-02-26T06:42:22;21.60;;;9.60;;
13220;SDS011;6675;48.128;11.478;2024-02-26T06:44:47;22.42;;;10.38;;
13220;SDS011;6675;48.128;11.478;2024-02-26T06:47:13;22.42;;;10.48;;
13220;SDS011;6675;48.128;11.478;2024-02-26T06:49:38;18.08;;;9.02;;
13220;SDS011;6675;48.128;11.478;2024-02-26T06:52:04;22.38;;;10.10;;
13220;SDS011;6675;48.128;11.478;2024-02-26T06:54:31;25.23;;;11.13;;
13220;SDS011;6675;48.128;11.478;2024-02-26T06:56:56;25.30;;;11.15;;
13220;SDS011;6675;48.128;11.478;2024-02-26T06:59:22;25.90;;;10.95;;
13220;SDS011;6675;48.128;11.478;2024-02-26T07:01:48;22.48;;;10.80;;
13220;SDS011;6675;48.128;11.478;2024-02-26T07:04:14;22.48;;;9.77;;
13220;SDS011;6675;48.128;11.478;2024-02-26T07:06:40;19.98;;;9.95;;
13220;SDS011;6675;48.128;11.478;2024-02-26T07:09:06;21.35;;;9.70;;
13220;SDS011;6675;48.128;11.478;2024-02-26T07:11:32;22.30;;;12.90;;
13220;SDS011;6675;48.128;11.478;2024-02-26T07:13:57;22.88;;;12.48;;
13220;SDS011;6675;48.128;11.478;2024-02-26T07:16:23;19.33;;;11.00;;
13220;SDS011;6675;48.128;11.478;2024-02-26T07:18:49;19.23;;;9.02;;
13220;SDS011;6675;48.128;11.478;2024-02-26T07:21:14;18.35;;;9.23;;
13220;SDS011;6675;48.128;11.478;2024-02-26T07:23:40;18.58;;;8.43;;
13220;SDS011;6675;48.128;11.478;2024-02-26T07:26:06;15.23;;;8.05;;
13220;SDS011;6675;48.128;11.478;2024-02-26T07:28:33;15.07;;;8.02;;
13220;SDS011;6675;48.128;11.478;2024-02-26T07:30:59;14.30;;;7.90;;
13220;SDS011;6675;48.128;11.478;2024-02-26T07:33:24;15.93;;;7.75;;
13220;SDS011;6675;48.128;11.478;2024-02-26T07:35:50;15.95;;;7.88;;
13220;SDS011;6675;48.128;11.478;2024-02-26T07:38:15;15.27;;;8.10;;
13220;SDS011;6675;48.128;11.478;2024-02-26T07:40:41;16.17;;;8.25;;
13220;SDS011;6675;48.128;11.478;2024-02-26T07:43:07;16.23;;;8.43;;
13220;SDS011;6675;48.128;11.478;2024-02-26T07:45:32;15.98;;;8.65;;
13220;SDS011;6675;48.128;11.478;2024-02-26T07:47:58;14.70;;;8.15;;
13220;SDS011;6675;48.128;11.478;2024-02-26T07:50:23;13.77;;;7.68;;
13220;SDS011;6675;48.128;11.478;2024-02-26T07:52:49;15.60;;;8.05;;
13220;SDS011;6675;48.128;11.478;2024-02-26T07:55:16;16.05;;;7.93;;
13220;SDS011;6675;48.128;11.478;2024-02-26T07:57:42;15.68;;;8.27;;
13220;SDS011;6675;48.128;11.478;2024-02-26T08:00:08;13.70;;;8.25;;
13220;SDS011;6675;48.128;11.478;2024-02-26T08:02:35;13.88;;;7.95;;
13220;SDS011;6675;48.128;11.478;2024-02-26T08:05:01;14.05;;;7.88;;
13220;SDS011;6675;48.128;11.478;2024-02-26T08:07:26;14.50;;;7.35;;
13220;SDS011;6675;48.128;11.478;2024-02-26T08:09:53;15.18;;;7.90;;
13220;SDS011;6675;48.128;11.478;2024-02-26T08:12:19;14.55;;;8.07;;
13220;SDS011;6675;48.128;11.478;2024-02-26T08:14:44;15.73;;;8.25;;
13220;SDS011;6675;48.128;11.478;2024-02-26T08:17:10;13.43;;;7.00;;
13220;SDS011;6675;48.128;11.478;2024-02-26T08:19:35;13.45;;;7.55;;
13220;SDS011;6675;48.128;11.478;2024-02-26T08:22:01;11.02;;;6.53;;
13220;SDS011;6675;48.128;11.478;2024-02-26T08:24:27;12.63;;;6.88;;
13220;SDS011;6675;48.128;11.478;2024-02-26T08:26:53;11.05;;;6.55;;
13220;SDS011;6675;48.128;11.478;2024-02-26T08:29:18;10.30;;;6.03;;
13220;SDS011;6675;48.128;11.478;2024-02-26T08:31:44;12.10;;;7.07;;
13220;SDS011;6675;48.128;11.478;2024-02-26T08:34:10;12.25;;;7.15;;
13220;SDS011;6675;48.128;11.478;2024-02-26T08:36:35;10.15;;;6.75;;
13220;SDS011;6675;48.128;11.478;2024-02-26T08:39:01;9.38;;;5.93;;
13220;SDS011;6675;48.128;11.478;2024-02-26T08:41:27;9.07;;;5.80;;
13220;SDS011;6675;48.128;11.478;2024-02-26T08:43:52;10.50;;;5.97;;
13220;SDS011;6675;48.128;11.478;2024-02-26T08:46:18;11.15;;;6.20;;
13220;SDS011;6675;48.128;11.478;2024-02-26T08:48:43;7.55;;;4.72;;
13220;SDS011;6675;48.128;11.478;2024-02-26T08:51:09;8.18;;;4.97;;
13220;SDS011;6675;48.128;11.478;2024-02-26T08:53:35;7.25;;;4.80;;
13220;SDS011;6675;48.128;11.478;2024-02-26T08:56:01;6.68;;;4.80;;
13220;SDS011;6675;48.128;11.478;2024-02-26T08:58:27;8.85;;;4.90;;
13220;SDS011;6675;48.128;11.478;2024-02-26T09:00:53;9.45;;;4.97;;
13220;SDS011;6675;48.128;11.478;2024-02-26T09:03:19;7.57;;;4.75;;
13220;SDS011;6675;48.128;11.478;2024-02-26T09:05:44;10.10;;;5.65;;
13220;SDS011;6675;48.128;11.478;2024-02-26T09:08:10;9.15;;;5.72;;
13220;SDS011;6675;48.128;11.478;2024-02-26T09:10:35;9.02;;;5.47;;
13220;SDS011;6675;48.128;11.478;2024-02-26T09:13:01;9.27;;;5.68;;
13220;SDS011;6675;48.128;11.478;2024-02-26T09:15:27;7.60;;;4.82;;
13220;SDS011;6675;48.128;11.478;2024-02-26T09:17:53;7.28;;;4.80;;
13220;SDS011;6675;48.128;11.478;2024-02-26T09:20:18;7.80;;;4.80;;
13220;SDS011;6675;48.128;11.478;2024-02-26T09:22:45;7.95;;;4.57;;
13220;SDS011;6675;48.128;11.478;2024-02-26T09:25:12;6.38;;;4.35;;
13220;SDS011;6675;48.128;11.478;2024-02-26T09:27:38;6.93;;;4.68;;
13220;SDS011;6675;48.128;11.478;2024-02-26T09:30:03;6.15;;;4.50;;
13220;SDS011;6675;48.128;11.478;2024-02-26T09:32:30;8.40;;;5.10;;
13220;SDS011;6675;48.128;11.478;2024-02-26T09:34:55;7.72;;;5.07;;
13220;SDS011;6675;48.128;11.478;2024-02-26T09:37:21;7.70;;;4.80;;
13220;SDS011;6675;48.128;11.478;2024-02-26T09:39:46;5.30;;;3.60;;
13220;SDS011;6675;48.128;11.478;2024-02-26T09:42:12;6.15;;;3.85;;
13220;SDS011;6675;48.128;11.478;2024-02-26T09:44:39;5.72;;;3.70;;
13220;SDS011;6675;48.128;11.478;2024-02-26T09:47:07;5.47;;;3.60;;
13220;SDS011;6675;48.128;11.478;2024-02-26T09:49:35;5.75;;;3.45;;
13220;SDS011;6675;48.128;11.478;2024-02-26T09:52:01;3.95;;;2.95;;
13220;SDS011;6675;48.128;11.478;2024-02-26T09:54:29;5.80;;;3.28;;
13220;SDS011;6675;48.128;11.478;2024-02-26T09:56:57;5.60;;;3.30;;
13220;SDS011;6675;48.128;11.478;2024-02-26T09:59:26;5.50;;;3.67;;
13220;SDS011;6675;48.128;11.478;2024-02-26T10:01:53;5.55;;;3.63;;
13220;SDS011;6675;48.128;11.478;2024-02-26T10:04:18;4.88;;;3.42;;
13220;SDS011;6675;48.128;11.478;2024-02-26T10:06:45;5.82;;;3.40;;
13220;SDS011;6675;48.128;11.478;2024-02-26T10:09:12;5.28;;;3.20;;
13220;SDS011;6675;48.128;11.478;2024-02-26T10:11:37;4.30;;;3.10;;
13220;SDS011;6675;48.128;11.478;2024-02-26T10:14:05;5.70;;;4.50;;
13220;SDS011;6675;48.128;11.478;2024-02-26T10:16:30;4.57;;;3.35;;
13220;SDS011;6675;48.128;11.478;2024-02-26T10:18:58;4.07;;;3.15;;
13220;SDS011;6675;48.128;11.478;2024-02-26T10:21:23;3.50;;;2.83;;
13220;SDS011;6675;48.128;11.478;2024-02-26T10:23:49;3.97;;;2.70;;
13220;SDS011;6675;48.128;11.478;2024-02-26T10:26:18;5.03;;;3.72;;
13220;SDS011;6675;48.128;11.478;2024-02-26T10:28:44;4.97;;;2.92;;
13220;SDS011;6675;48.128;11.478;2024-02-26T10:31:10;3.85;;;2.75;;
13220;SDS011;6675;48.128;11.478;2024-02-26T10:33:38;3.42;;;2.75;;
13220;SDS011;6675;48.128;11.478;2024-02-26T10:36:04;5.18;;;3.97;;
13220;SDS011;6675;48.128;11.478;2024-02-26T10:38:34;4.38;;;3.30;;
13220;SDS011;6675;48.128;11.478;2024-02-26T10:41:01;3.85;;;2.53;;
13220;SDS011;6675;48.128;11.478;2024-02-26T10:43:28;4.18;;;2.88;;
13220;SDS011;6675;48.128;11.478;2024-02-26T10:45:54;4.03;;;2.70;;
13220;SDS011;6675;48.128;11.478;2024-02-26T10:48:20;3.47;;;2.60;;
13220;SDS011;6675;48.128;11.478;2024-02-26T10:50:46;3.45;;;2.58;;
13220;SDS011;6675;48.128;11.478;2024-02-26T10:53:13;3.13;;;2.53;;
13220;SDS011;6675;48.128;11.478;2024-02-26T10:56:08;4.50;;;3.33;;
13220;SDS011;6675;48.128;11.478;2024-02-26T10:58:33;4.30;;;2.50;;
13220;SDS011;6675;48.128;11.478;2024-02-26T11:01:00;3.67;;;2.80;;
13220;SDS011;6675;48.128;11.478;2024-02-26T11:03:27;4.20;;;2.85;;
13220;SDS011;6675;48.128;11.478;2024-02-26T11:05:56;3.83;;;2.53;;
13220;SDS011;6675;48.128;11.478;2024-02-26T11:08:24;3.72;;;2.90;;
13220;SDS011;6675;48.128;11.478;2024-02-26T11:10:50;5.05;;;4.10;;
13220;SDS011;6675;48.128;11.478;2024-02-26T11:13:18;5.57;;;3.83;;
13220;SDS011;6675;48.128;11.478;2024-02-26T11:15:46;5.10;;;3.08;;
13220;SDS011;6675;48.128;11.478;2024-02-26T11:18:13;4.85;;;2.75;;
13220;SDS011;6675;48.128;11.478;2024-02-26T11:23:09;7.80;;;3.35;;
13220;SDS011;6675;48.128;11.478;2024-02-26T11:25:35;7.45;;;3.65;;
13220;SDS011;6675;48.128;11.478;2024-02-26T11:28:03;5.05;;;3.15;;
13220;SDS011;6675;48.128;11.478;2024-02-26T11:30:32;5.40;;;2.95;;
13220;SDS011;6675;48.128;11.478;2024-02-26T11:33:03;4.20;;;2.75;;
13220;SDS011;6675;48.128;11.478;2024-02-26T11:35:31;4.63;;;3.10;;
13220;SDS011;6675;48.128;11.478;2024-02-26T11:37:57;4.63;;;2.80;;
13220;SDS011;6675;48.128;11.478;2024-02-26T11:40:26;4.60;;;3.13;;
13220;SDS011;6675;48.128;11.478;2024-02-26T11:42:52;3.33;;;2.50;;
13220;SDS011;6675;48.128;11.478;2024-02-26T11:48:03;4.82;;;3.20;;
13220;SDS011;6675;48.128;11.478;2024-02-26T11:50:51;5.85;;;3.45;;
13220;SDS011;6675;48.128;11.478;2024-02-26T11:53:21;6.82;;;4.55;;
13220;SDS011;6675;48.128;11.478;2024-02-26T11:55:47;9.32;;;5.28;;
13220;SDS011;6675;48.128;11.478;2024-02-26T11:58:33;10.93;;;5.05;;
13220;SDS011;6675;48.128;11.478;2024-02-26T12:00:58;8.07;;;4.93;;
13220;SDS011;6675;48.128;11.478;2024-02-26T12:03:24;7.25;;;5.05;;
13220;SDS011;6675;48.128;11.478;2024-02-26T12:05:51;9.90;;;6.18;;
13220;SDS011;6675;48.128;11.478;2024-02-26T12:08:16;9.65;;;5.95;;
13220;SDS011;6675;48.128;11.478;2024-02-26T12:10:45;8.63;;;5.15;;
13220;SDS011;6675;48.128;11.478;2024-02-26T12:13:11;7.90;;;5.80;;
13220;SDS011;6675;48.128;11.478;2024-02-26T12:15:39;10.43;;;6.50;;
13220;SDS011;6675;48.128;11.478;2024-02-26T12:18:05;5.82;;;4.30;;
13220;SDS011;6675;48.128;11.478;2024-02-26T12:20:36;3.88;;;3.28;;
13220;SDS011;6675;48.128;11.478;2024-02-26T12:23:02;5.03;;;3.75;;
13220;SDS011;6675;48.128;11.478;2024-02-26T12:27:58;5.85;;;3.35;;
13220;SDS011;6675;48.128;11.478;2024-02-26T12:30:24;5.00;;;3.58;;
13220;SDS011;6675;48.128;11.478;2024-02-26T12:32:51;5.63;;;3.72;;
13220;SDS011;6675;48.128;11.478;2024-02-26T12:35:17;4.35;;;3.05;;
13220;SDS011;6675;48.128;11.478;2024-02-26T12:37:43;3.30;;;2.97;;
13220;SDS011;6675;48.128;11.478;2024-02-26T12:40:09;3.58;;;2.70;;
13220;SDS011;6675;48.128;11.478;2024-02-26T12:42:36;4.40;;;3.63;;
13220;SDS011;6675;48.128;11.478;2024-02-26T12:45:06;3.83;;;3.22;;
13220;SDS011;6675;48.128;11.478;2024-02-26T12:47:39;3.58;;;2.85;;
13220;SDS011;6675;48.128;11.478;2024-02-26T12:50:06;3.10;;;2.47;;
13220;SDS011;6675;48.128;11.478;2024-02-26T12:52:34;2.38;;;1.83;;
13220;SDS011;6675;48.128;11.478;2024-02-26T12:55:02;3.72;;;2.90;;
13220;SDS011;6675;48.128;11.478;2024-02-26T12:57:32;4.20;;;2.88;;
13220;SDS011;6675;48.128;11.478;2024-02-26T12:59:59;2.97;;;2.50;;
13220;SDS011;6675;48.128;11.478;2024-02-26T13:02:25;4.22;;;2.75;;
13220;SDS011;6675;48.128;11.478;2024-02-26T13:04:51;3.30;;;2.60;;
13220;SDS011;6675;48.128;11.478;2024-02-26T13:07:18;4.93;;;3.40;;
13220;SDS011;6675;48.128;11.478;2024-02-26T13:09:45;2.88;;;2.47;;
13220;SDS011;6675;48.128;11.478;2024-02-26T13:12:10;3.40;;;2.50;;
13220;SDS011;6675;48.128;11.478;2024-02-26T13:14:38;4.60;;;2.85;;
13220;SDS011;6675;48.128;11.478;2024-02-26T13:17:03;4.75;;;2.30;;
13220;SDS011;6675;48.128;11.478;2024-02-26T13:19:29;3.80;;;2.78;;
13220;SDS011;6675;48.128;11.478;2024-02-26T13:21:55;2.75;;;1.80;;
13220;SDS011;6675;48.128;11.478;2024-02-26T13:24:21;2.10;;;1.52;;
13220;SDS011;6675;48.128;11.478;2024-02-26T13:26:47;3.08;;;2.00;;
13220;SDS011;6675;48.128;11.478;2024-02-26T13:29:19;3.50;;;2.10;;
13220;SDS011;6675;48.128;11.478;2024-02-26T13:31:44;3.53;;;1.90;;
13220;SDS011;6675;48.128;11.478;2024-02-26T13:34:11;2.13;;;1.58;;
13220;SDS011;6675;48.128;11.478;2024-02-26T13:36:48;2.78;;;1.80;;
13220;SDS011;6675;48.128;11.478;2024-02-26T13:39:20;2.92;;;1.60;;
13220;SDS011;6675;48.128;11.478;2024-02-26T13:41:50;3.67;;;2.28;;
13220;SDS011;6675;48.128;11.478;2024-02-26T13:44:16;2.88;;;1.90;;
13220;SDS011;6675;48.128;11.478;2024-02-26T13:46:41;4.32;;;1.88;;
13220;SDS011;6675;48.128;11.478;2024-02-26T13:49:08;2.17;;;1.55;;
13220;SDS011;6675;48.128;11.478;2024-02-26T13:51:34;3.35;;;1.55;;
13220;SDS011;6675;48.128;11.478;2024-02-26T13:54:00;2.00;;;1.30;;
13220;SDS011;6675;48.128;11.478;2024-02-26T13:56:26;1.80;;;1.10;;
13220;SDS011;6675;48.128;11.478;2024-02-26T13:58:51;2.50;;;1.30;;
13220;SDS011;6675;48.128;11.478;2024-02-26T14:01:17;2.35;;;1.35;;
13220;SDS011;6675;48.128;11.478;2024-02-26T14:03:42;3.25;;;1.63;;
13220;SDS011;6675;48.128;11.478;2024-02-26T14:06:08;2.63;;;1.45;;
13220;SDS011;6675;48.128;11.478;2024-02-26T14:08:34;3.38;;;1.63;;
13220;SDS011;6675;48.128;11.478;2024-02-26T14:10:59;2.53;;;1.17;;
13220;SDS011;6675;48.128;11.478;2024-02-26T14:13:25;2.63;;;1.50;;
13220;SDS011;6675;48.128;11.478;2024-02-26T14:15:51;2.65;;;1.20;;
13220;SDS011;6675;48.128;11.478;2024-02-26T14:18:16;2.03;;;1.20;;
13220;SDS011;6675;48.128;11.478;2024-02-26T14:20:42;2.78;;;1.40;;
13220;SDS011;6675;48.128;11.478;2024-02-26T14:23:09;4.95;;;1.75;;
13220;SDS011;6675;48.128;11.478;2024-02-26T14:25:35;3.28;;;1.95;;
13220;SDS011;6675;48.128;11.478;2024-02-26T14:28:01;4.38;;;2.20;;
13220;SDS011;6675;48.128;11.478;2024-02-26T14:30:28;3.03;;;1.35;;
13220;SDS011;6675;48.128;11.478;2024-02-26T14:32:53;2.33;;;1.40;;
13220;SDS011;6675;48.128;11.478;2024-02-26T14:35:19;6.28;;;3.33;;
13220;SDS011;6675;48.128;11.478;2024-02-26T14:37:45;5.60;;;2.80;;
13220;SDS011;6675;48.128;11.478;2024-02-26T14:40:14;6.80;;;3.45;;
13220;SDS011;6675;48.128;11.478;2024-02-26T14:42:40;9.07;;;3.78;;
13220;SDS011;6675;48.128;11.478;2024-02-26T14:45:06;3.50;;;1.92;;